Hlavní strana
METAR-TAF:

METAR-TAF

Letiště :

Landsberg, Německo

zeměpisná šířka: 48-04N, zeměpisná délka: 010-54E, výška: 623 m

Aktuální stav počasí

Zpráva byla vytvořena před 40 minutami, v 04:20 UTC
Jihojihovýchodní vítr 3 kt
Teplota 13°C
Vlhkost vzduchu 88%
Tlak 1020 hPa
Viditelnost 10 km a více

METAR: ETSA 270420Z AUTO 16003KT 9999 // ////// 13/11 Q1020 ///

Čas: 07:00 (05:00 UTC)


TAF: chybějící

Stav a předpovědi počasí z více než 4 000 letišť (zprávy METAR a TAF).

Červené a žluté tečky na mapě představují dostupné meteorologické stanice.

Když kurzor umístíte na tečku, zobrazí se název stanice.

Pak kliknutím zobrazíte stav a předpověď počasí.

Chcete-li změnit mapu, kliknutím na zelené tlačítko se znaménkem +mapu přiblížíte, kliknutím na zelené tlačítko se znaménkem – mapu oddálíte a kliknutím na zelené šipky přejdete na sousední mapy.


METAR-TAF: